createdAt,value
2017-06-15T18:58:11.814Z,13.80
2017-06-15T19:00:39.342Z,9.93
2017-06-15T19:03:06.894Z,8.40
2017-06-15T19:05:34.449Z,9.40
2017-06-15T19:08:01.972Z,9.70
2017-06-15T19:10:29.536Z,10.03
2017-06-15T19:12:57.065Z,11.37
2017-06-15T19:15:24.677Z,13.10
2017-06-15T19:17:52.211Z,10.40
2017-06-15T19:20:19.748Z,7.83
2017-06-15T19:22:47.280Z,17.00
2017-06-15T19:25:15.855Z,10.00
2017-06-15T19:27:43.408Z,15.40
2017-06-15T19:30:11.169Z,12.47
2017-06-15T19:32:38.724Z,14.70
2017-06-15T19:35:06.272Z,11.97
2017-06-15T19:37:33.863Z,13.90
2017-06-15T19:40:01.374Z,12.37
2017-06-15T19:42:28.926Z,14.70
2017-06-15T19:44:56.641Z,13.33
2017-06-15T19:47:24.192Z,14.10
2017-06-15T19:49:51.823Z,14.00
2017-06-15T19:52:19.381Z,13.23
2017-06-15T19:54:47.011Z,11.00
2017-06-15T19:57:14.543Z,15.10
2017-06-15T19:59:42.112Z,10.83
2017-06-15T20:02:09.636Z,14.30
2017-06-15T20:04:37.171Z,16.87
2017-06-15T20:07:04.726Z,18.90
2017-06-15T20:09:32.274Z,16.00
2017-06-15T20:11:59.810Z,12.37
2017-06-15T20:14:27.382Z,17.87
2017-06-15T20:16:55.799Z,17.70
2017-06-15T20:19:23.341Z,16.43
2017-06-15T20:21:50.903Z,22.80
2017-06-15T20:24:18.452Z,21.33
2017-06-15T20:26:46.060Z,14.33
2017-06-15T20:29:13.921Z,14.47
2017-06-15T20:31:41.432Z,14.07
2017-06-15T20:34:09.028Z,11.20
2017-06-15T20:36:36.942Z,14.30
2017-06-15T20:39:04.508Z,17.80
2017-06-15T20:41:32.139Z,14.30
2017-06-15T20:43:59.820Z,40.30
2017-06-15T20:46:27.392Z,31.33
2017-06-15T20:48:54.932Z,29.73
2017-06-15T20:51:22.853Z,17.60
2017-06-15T20:53:50.417Z,16.57
2017-06-15T20:56:18.041Z,12.10
2017-06-15T21:01:19.426Z,16.17
2017-06-15T21:03:46.987Z,7.97
2017-06-15T21:06:14.565Z,12.80
2017-06-15T21:08:42.148Z,11.20
2017-06-15T21:11:09.674Z,10.93
2017-06-15T21:13:37.340Z,10.03
2017-06-15T21:16:04.908Z,8.60
2017-06-15T21:18:32.436Z,10.53
2017-06-15T21:20:59.952Z,7.53
2017-06-15T21:23:27.555Z,9.90
2017-06-15T21:25:55.077Z,10.57
2017-06-15T21:28:22.649Z,11.40
2017-06-15T21:30:50.170Z,5.80
2017-06-15T21:33:17.681Z,6.60
2017-06-15T21:35:45.217Z,8.67
2017-06-15T21:38:12.737Z,8.77
2017-06-15T21:40:40.283Z,8.37
2017-06-15T21:43:07.849Z,7.50
2017-06-15T21:45:35.404Z,4.80
2017-06-15T21:48:02.952Z,7.00
2017-06-15T21:50:30.527Z,6.20
2017-06-15T21:52:58.059Z,5.77
2017-06-15T21:55:25.581Z,14.80
2017-06-15T21:57:53.141Z,6.77
2017-06-15T22:00:20.720Z,4.03
2017-06-15T22:02:48.293Z,6.87
2017-06-15T22:05:15.828Z,6.57
2017-06-15T22:07:43.388Z,6.67
2017-06-15T22:10:11.058Z,7.80
2017-06-15T22:12:38.663Z,7.10
2017-06-15T22:15:06.261Z,6.03
2017-06-15T22:17:33.994Z,6.77
2017-06-15T22:20:01.514Z,6.63
2017-06-15T22:22:29.065Z,6.43
2017-06-15T22:24:56.604Z,6.90
2017-06-15T22:27:24.155Z,11.97
2017-06-15T22:29:51.692Z,6.90
2017-06-15T22:32:19.213Z,5.20
2017-06-15T22:34:46.756Z,4.50
2017-06-15T22:37:14.332Z,7.27
2017-06-15T22:39:41.894Z,5.50
2017-06-15T22:42:09.531Z,5.77
2017-06-15T22:44:37.093Z,4.30
2017-06-15T22:47:04.668Z,4.30
2017-06-15T22:49:32.225Z,3.77
2017-06-15T22:51:59.756Z,5.30
2017-06-15T22:54:27.273Z,4.03
2017-06-15T22:56:55.105Z,5.37
2017-06-15T22:59:23.477Z,4.00
2017-06-15T23:01:51.012Z,5.53
2017-06-15T23:04:18.600Z,6.83
2017-06-15T23:06:46.413Z,3.47
2017-06-15T23:09:13.924Z,5.10
2017-06-15T23:11:41.523Z,4.03
2017-06-15T23:14:09.040Z,6.37
2017-06-15T23:16:36.600Z,4.40
2017-06-15T23:19:04.933Z,5.63
2017-06-15T23:21:32.474Z,6.13
2017-06-15T23:24:00.125Z,3.70
2017-06-15T23:26:28.717Z,3.73
2017-06-15T23:28:56.382Z,4.83
2017-06-15T23:31:24.088Z,4.27
2017-06-15T23:33:51.623Z,5.57
2017-06-15T23:36:19.141Z,5.50
2017-06-15T23:38:47.652Z,4.57
2017-06-15T23:41:15.184Z,4.83
2017-06-15T23:43:42.767Z,4.50
2017-06-15T23:46:10.304Z,4.00
2017-06-15T23:48:37.847Z,3.87
2017-06-15T23:51:06.174Z,4.70
2017-06-15T23:53:33.681Z,5.50
2017-06-15T23:56:01.216Z,3.67
2017-06-15T23:58:28.760Z,6.43
